Lakki Marwat Weather



Lakki Marwat's Current Weather

Temprature 26.86o broken clouds

broken clouds

Rain: 0 %

Min Temprature26.86o
Max Temprature26.86o
Humidity62
Wind Speed1.36 m/h
Sun Rise06:06:47
Sun Set18:08:49
Current Time: 26-Sep-2022 07:47:50
Lat/Lon: 32.6079, 70.9114




Lakki Marwat's Geo Location



Lakki Marwat's Weather Forecast

Time Overall Temp Min Temp Max Temp Humidity Wind Speed Rain
26-Sep-2022 (Mon)
08:00:00 light rain 26.860 26.860 26.860 62 1.36 m/h 13 %
11:00:00 broken clouds 27.980 27.980 30.210 58 1.09 m/h 0 %
14:00:00 few clouds 31.010 31.010 33.080 46 1.04 m/h 0 %
17:00:00 clear sky 33.840 33.840 33.840 35 1.25 m/h 0 %
20:00:00 clear sky 32.680 32.680 32.680 38 1.82 m/h 0 %
23:00:00 clear sky 31.450 31.450 31.450 41 1.98 m/h 0 %
27-Sep-2022 (Tue)
02:00:00 clear sky 30.180 30.180 30.180 44 2.18 m/h 0 %
05:00:00 clear sky 29.040 29.040 29.040 47 0.95 m/h 0 %
08:00:00 clear sky 30.550 30.550 30.550 42 0.95 m/h 0 %
11:00:00 clear sky 33.230 33.230 33.230 36 1.08 m/h 0 %
14:00:00 clear sky 35.400 35.400 35.400 31 1.83 m/h 0 %
17:00:00 clear sky 36.000 36.000 36.000 27 2.65 m/h 0 %
20:00:00 clear sky 34.100 34.100 34.100 31 3.18 m/h 0 %
23:00:00 clear sky 32.530 32.530 32.530 33 2.69 m/h 0 %
28-Sep-2022 (Wed)
02:00:00 clear sky 30.850 30.850 30.850 38 2.29 m/h 0 %
05:00:00 clear sky 28.970 28.970 28.970 47 1.51 m/h 0 %
08:00:00 clear sky 30.160 30.160 30.160 45 1.64 m/h 0 %
11:00:00 clear sky 33.780 33.780 33.780 34 2.34 m/h 0 %
14:00:00 clear sky 36.340 36.340 36.340 27 3.07 m/h 0 %
17:00:00 clear sky 36.620 36.620 36.620 23 3.46 m/h 0 %
20:00:00 clear sky 34.310 34.310 34.310 28 3.63 m/h 0 %
23:00:00 clear sky 32.430 32.430 32.430 33 3.43 m/h 0 %
29-Sep-2022 (Thu)
02:00:00 clear sky 30.310 30.310 30.310 42 3.21 m/h 0 %
05:00:00 clear sky 28.620 28.620 28.620 51 2.89 m/h 0 %
08:00:00 clear sky 30.150 30.150 30.150 46 1.6 m/h 0 %
11:00:00 clear sky 33.890 33.890 33.890 34 2.94 m/h 0 %
14:00:00 clear sky 36.460 36.460 36.460 26 2.96 m/h 0 %
17:00:00 clear sky 36.870 36.870 36.870 21 3.45 m/h 0 %
20:00:00 clear sky 34.250 34.250 34.250 23 3.1 m/h 0 %
23:00:00 clear sky 32.750 32.750 32.750 26 3.36 m/h 0 %
30-Sep-2022 (Fri)
02:00:00 clear sky 30.520 30.520 30.520 31 1.89 m/h 0 %
05:00:00 clear sky 28.560 28.560 28.560 39 1.82 m/h 0 %
08:00:00 clear sky 30.250 30.250 30.250 36 2.01 m/h 0 %
11:00:00 clear sky 34.160 34.160 34.160 25 1.8 m/h 0 %
14:00:00 clear sky 36.870 36.870 36.870 20 2.13 m/h 0 %
17:00:00 clear sky 37.190 37.190 37.190 17 2.94 m/h 0 %
20:00:00 clear sky 34.500 34.500 34.500 20 2.68 m/h 0 %
23:00:00 clear sky 32.440 32.440 32.440 23 2.55 m/h 0 %
01-Oct-2022 (Sat)
02:00:00 clear sky 30.420 30.420 30.420 28 1.91 m/h 0 %
05:00:00 clear sky 28.630 28.630 28.630 34 2.33 m/h 0 %

Famous Cities (61)